createdAt,value
2023-03-10T00:00:32.220Z,18.52
2023-03-10T00:05:34.558Z,17.45
2023-03-10T00:10:36.911Z,17.70
2023-03-10T00:15:38.933Z,18.13
2023-03-10T00:20:41.022Z,19.20
2023-03-10T00:25:43.094Z,19.98
2023-03-10T00:30:45.221Z,18.92
2023-03-10T00:35:47.269Z,21.13
2023-03-10T00:40:49.353Z,18.85
2023-03-10T00:45:51.457Z,19.40
2023-03-10T00:50:53.815Z,18.95
2023-03-10T00:56:04.773Z,19.05
2023-03-10T01:01:14.100Z,19.05
2023-03-10T01:06:16.151Z,20.42
2023-03-10T01:11:22.099Z,20.45
2023-03-10T01:16:24.454Z,21.17
2023-03-10T01:21:29.820Z,20.13
2023-03-10T01:26:32.473Z,20.20
2023-03-10T01:31:34.731Z,19.58
2023-03-10T01:36:41.347Z,22.33
2023-03-10T01:41:43.589Z,21.37
2023-03-10T01:46:54.721Z,23.13
2023-03-10T01:52:23.080Z,22.77
2023-03-10T01:57:32.259Z,22.35
2023-03-10T02:02:36.736Z,23.00
2023-03-10T02:07:41.279Z,22.40
2023-03-10T02:12:43.786Z,22.15
2023-03-10T02:17:46.178Z,20.65
2023-03-10T02:22:48.819Z,20.05
2023-03-10T02:27:51.355Z,19.50
2023-03-10T02:33:01.336Z,20.48
2023-03-10T02:38:04.553Z,16.67
2023-03-10T02:43:20.782Z,17.00
2023-03-10T02:48:36.219Z,15.93
2023-03-10T02:53:41.731Z,15.82
2023-03-10T02:58:44.421Z,15.77
2023-03-10T03:03:47.180Z,14.63
2023-03-10T03:08:49.844Z,13.93
2023-03-10T03:13:54.801Z,12.15
2023-03-10T03:18:57.913Z,14.45
2023-03-10T03:24:00.679Z,12.35
2023-03-10T03:29:02.907Z,11.73
2023-03-10T03:34:09.489Z,12.13
2023-03-10T03:39:17.079Z,12.32
2023-03-10T03:44:21.451Z,11.27
2023-03-10T03:49:25.134Z,11.15
2023-03-10T03:54:27.578Z,11.52
2023-03-10T03:59:29.872Z,9.93
2023-03-10T04:04:32.769Z,10.63
2023-03-10T04:09:35.320Z,9.98
2023-03-10T04:14:37.984Z,10.15
2023-03-10T04:19:40.422Z,9.27
2023-03-10T04:24:46.515Z,9.75
2023-03-10T04:29:48.843Z,9.63
2023-03-10T04:34:51.456Z,10.52
2023-03-10T04:39:53.692Z,11.30
2023-03-10T04:44:55.949Z,11.20
2023-03-10T04:49:58.496Z,9.75
2023-03-10T04:55:00.641Z,10.00
2023-03-10T05:00:07.581Z,9.00
2023-03-10T05:05:10.768Z,7.90
2023-03-10T05:10:15.682Z,7.63
2023-03-10T05:15:17.900Z,8.25
2023-03-10T05:20:20.624Z,8.77
2023-03-10T05:25:22.854Z,8.60
2023-03-10T05:30:25.449Z,9.63
2023-03-10T05:35:30.309Z,8.98
2023-03-10T05:40:34.006Z,10.20
2023-03-10T05:45:36.474Z,9.82
2023-03-10T05:50:39.149Z,10.18
2023-03-10T05:55:41.298Z,9.80
2023-03-10T06:00:43.411Z,9.07
2023-03-10T06:05:50.398Z,9.70
2023-03-10T06:10:52.444Z,9.52
2023-03-10T06:15:56.880Z,7.78
2023-03-10T06:20:59.054Z,7.40
2023-03-10T06:26:07.082Z,7.60
2023-03-10T06:31:14.310Z,7.10
2023-03-10T06:36:17.660Z,7.55
2023-03-10T06:41:21.568Z,7.97
2023-03-10T06:46:25.460Z,7.68
2023-03-10T06:51:27.575Z,7.97
2023-03-10T06:56:29.756Z,9.00
2023-03-10T07:01:33.846Z,7.53
2023-03-10T07:06:35.975Z,8.77
2023-03-10T07:11:37.999Z,10.85
2023-03-10T07:16:40.325Z,10.65
2023-03-10T07:21:42.486Z,12.13
2023-03-10T07:26:44.687Z,11.63
2023-03-10T07:31:46.824Z,11.68
2023-03-10T07:36:48.987Z,10.23
2023-03-10T07:41:51.322Z,10.68
2023-03-10T07:46:53.621Z,10.25
2023-03-10T07:51:55.916Z,9.00
2023-03-10T07:56:58.158Z,9.23
2023-03-10T08:02:00.398Z,9.23
2023-03-10T08:07:02.641Z,8.77
2023-03-10T08:12:05.350Z,7.65
2023-03-10T08:17:07.521Z,6.70
2023-03-10T08:22:10.292Z,6.45
2023-03-10T08:27:12.443Z,6.00
2023-03-10T08:32:14.545Z,4.60
2023-03-10T08:37:16.623Z,4.57
2023-03-10T08:42:18.677Z,3.97
2023-03-10T08:47:20.746Z,4.25
2023-03-10T08:52:24.290Z,3.70
2023-03-10T08:57:26.529Z,4.15
2023-03-10T09:02:29.450Z,4.32
2023-03-10T09:07:31.736Z,3.72
2023-03-10T09:12:37.668Z,3.33
2023-03-10T09:17:41.154Z,3.05
2023-03-10T09:22:43.289Z,3.72
2023-03-10T09:27:46.706Z,3.92
2023-03-10T09:32:49.151Z,3.65
2023-03-10T09:37:51.358Z,3.95
2023-03-10T09:43:05.804Z,4.10
2023-03-10T09:48:13.891Z,3.22
2023-03-10T09:53:44.131Z,2.70
2023-03-10T09:58:49.976Z,2.78
2023-03-10T10:03:54.737Z,2.38
2023-03-10T10:09:05.346Z,2.75
2023-03-10T10:14:29.807Z,2.80
2023-03-10T10:19:34.894Z,2.40
2023-03-10T10:24:40.424Z,2.53
2023-03-10T10:29:46.869Z,2.83
2023-03-10T10:34:49.237Z,2.47
2023-03-10T10:39:53.411Z,2.78
2023-03-10T10:44:57.393Z,2.50
2023-03-10T10:50:25.765Z,2.10
2023-03-10T10:55:34.356Z,2.20
2023-03-10T11:00:38.373Z,2.20
2023-03-10T11:05:40.748Z,2.33
2023-03-10T11:10:43.019Z,2.22
2023-03-10T11:15:51.429Z,2.20
2023-03-10T11:21:11.822Z,2.05
2023-03-10T11:26:28.691Z,1.73
2023-03-10T11:31:51.448Z,1.80
2023-03-10T11:37:29.762Z,1.80
2023-03-10T11:42:55.554Z,2.00
2023-03-10T11:48:16.450Z,2.90
2023-03-10T11:53:34.917Z,4.20
2023-03-10T11:58:45.730Z,4.57
2023-03-10T12:08:55.533Z,6.90
2023-03-10T12:14:00.305Z,6.88
2023-03-10T12:19:04.964Z,7.20
2023-03-10T12:24:44.016Z,3.75
2023-03-10T12:29:46.591Z,3.97
2023-03-10T12:35:21.870Z,4.05
2023-03-10T12:40:52.181Z,4.22
2023-03-10T12:45:58.359Z,4.32
2023-03-10T12:51:08.460Z,4.30
2023-03-10T12:56:13.644Z,4.82
2023-03-10T13:01:22.294Z,3.22
2023-03-10T13:06:39.308Z,2.60
2023-03-10T13:11:58.806Z,2.10
2023-03-10T13:17:02.979Z,1.92
2023-03-10T13:22:05.169Z,2.40
2023-03-10T13:27:07.306Z,2.45
2023-03-10T13:32:18.498Z,2.13
2023-03-10T13:37:20.885Z,1.63
2023-03-10T13:42:43.429Z,1.45
2023-03-10T13:47:47.283Z,1.65
2023-03-10T13:52:57.245Z,1.48
2023-03-10T13:57:59.741Z,1.43
2023-03-10T14:03:02.492Z,1.38
2023-03-10T14:08:05.854Z,1.10
2023-03-10T14:13:41.313Z,1.50
2023-03-10T14:18:43.748Z,1.50
2023-03-10T14:23:45.853Z,2.10
2023-03-10T14:28:48.104Z,2.83
2023-03-10T14:33:50.974Z,2.83
2023-03-10T14:38:53.217Z,2.60
2023-03-10T14:43:55.395Z,4.07
2023-03-10T14:48:57.613Z,5.13
2023-03-10T14:53:59.822Z,4.32
2023-03-10T14:59:02.560Z,4.82
2023-03-10T15:04:06.860Z,3.53
2023-03-10T15:09:09.921Z,3.13
2023-03-10T15:14:18.375Z,4.15
2023-03-10T15:19:23.868Z,4.80
2023-03-10T15:24:25.923Z,4.05
2023-03-10T15:29:28.083Z,3.33
2023-03-10T15:34:30.083Z,3.45
2023-03-10T15:39:34.196Z,3.95
2023-03-10T15:44:37.533Z,4.65
2023-03-10T15:49:40.012Z,3.45
2023-03-10T15:54:42.294Z,3.67
2023-03-10T15:59:44.448Z,3.47
2023-03-10T16:04:47.062Z,4.05
2023-03-10T16:09:50.161Z,4.22
2023-03-10T16:14:52.588Z,3.35
2023-03-10T16:19:55.424Z,3.78
2023-03-10T16:24:58.976Z,3.42
2023-03-10T16:30:01.285Z,3.63
2023-03-10T16:35:04.100Z,3.05
2023-03-10T16:40:07.773Z,2.03
2023-03-10T16:45:10.382Z,1.50
2023-03-10T16:50:13.973Z,1.52
2023-03-10T16:55:17.926Z,1.40
2023-03-10T17:00:21.000Z,1.05
2023-03-10T17:05:24.286Z,1.15
2023-03-10T17:10:26.702Z,1.17
2023-03-10T17:15:31.660Z,0.75
2023-03-10T17:20:33.839Z,0.80
2023-03-10T17:25:35.901Z,1.02
2023-03-10T17:30:41.138Z,0.98
2023-03-10T17:35:43.285Z,1.00
2023-03-10T17:40:45.374Z,1.10
2023-03-10T17:45:56.768Z,1.08
2023-03-10T17:50:59.412Z,0.90
2023-03-10T17:56:06.156Z,0.90
2023-03-10T18:01:13.942Z,1.40
2023-03-10T18:06:19.750Z,1.42
2023-03-10T18:11:21.921Z,1.35
2023-03-10T18:16:32.442Z,1.90
2023-03-10T18:21:34.600Z,1.40
2023-03-10T18:26:37.934Z,1.50
2023-03-10T18:31:40.053Z,1.17
2023-03-10T18:36:42.230Z,1.10
2023-03-10T18:41:44.601Z,0.88
2023-03-10T18:46:47.009Z,1.30
2023-03-10T18:51:49.175Z,1.40
2023-03-10T18:56:51.397Z,1.55
2023-03-10T19:01:54.648Z,1.23
2023-03-10T19:06:57.015Z,1.83
2023-03-10T19:11:59.325Z,1.92
2023-03-10T19:17:01.553Z,1.30
2023-03-10T19:22:03.767Z,1.60
2023-03-10T19:27:05.874Z,1.45
2023-03-10T19:32:08.575Z,1.88
2023-03-10T19:37:11.749Z,1.40
2023-03-10T19:42:13.767Z,1.88
2023-03-10T19:47:17.593Z,1.73
2023-03-10T19:52:19.725Z,1.77
2023-03-10T19:57:21.923Z,2.00
2023-03-10T20:02:25.828Z,2.05
2023-03-10T20:07:30.219Z,2.13
2023-03-10T20:12:32.270Z,2.83
2023-03-10T20:17:34.398Z,2.30
2023-03-10T20:22:41.174Z,2.65
2023-03-10T20:27:44.356Z,2.30
2023-03-10T20:32:46.671Z,2.50
2023-03-10T20:37:48.806Z,3.30
2023-03-10T20:42:52.926Z,2.88
2023-03-10T20:47:55.777Z,3.17
2023-03-10T20:52:57.931Z,2.00
2023-03-10T20:58:00.880Z,3.17
2023-03-10T21:03:03.038Z,2.72
2023-03-10T21:08:05.263Z,2.03
2023-03-10T21:13:07.249Z,1.90
2023-03-10T21:18:09.405Z,2.05
2023-03-10T21:23:11.472Z,2.15
2023-03-10T21:28:13.532Z,1.90
2023-03-10T21:33:15.631Z,2.00
2023-03-10T21:38:17.650Z,1.60
2023-03-10T21:43:19.820Z,1.67
2023-03-10T21:48:21.900Z,1.55
2023-03-10T21:53:26.419Z,1.83
2023-03-10T21:58:28.629Z,2.00
2023-03-10T22:03:31.046Z,1.25
2023-03-10T22:08:34.768Z,1.73
2023-03-10T22:13:38.306Z,1.80
2023-03-10T22:18:40.500Z,1.98
2023-03-10T22:23:43.819Z,1.73
2023-03-10T22:28:45.999Z,1.42
2023-03-10T22:33:48.342Z,1.33
2023-03-10T22:38:50.523Z,1.52
2023-03-10T22:43:52.631Z,1.88
2023-03-10T22:48:54.624Z,2.33
2023-03-10T22:54:08.646Z,2.00
2023-03-10T22:59:10.667Z,1.38
2023-03-10T23:04:13.792Z,1.63
2023-03-10T23:09:17.804Z,1.80
2023-03-10T23:14:19.925Z,1.70
2023-03-10T23:19:22.034Z,1.70
2023-03-10T23:24:24.214Z,1.83
2023-03-10T23:29:26.237Z,1.77
2023-03-10T23:34:28.314Z,1.60
2023-03-10T23:39:30.382Z,1.65
2023-03-10T23:44:32.828Z,2.03
2023-03-10T23:49:34.828Z,1.50
2023-03-10T23:54:37.037Z,1.70
2023-03-10T23:59:39.161Z,1.40
